Terminal Aerodrome Forecast
Issued by NWS Miami, FL

Home | Current Version | Previous Version | Text Only | Print | Product List | Glossary On
Versions: 1 2 3 4 5 6 7 8 9 10 11 12 13 14 15 16 17 18 19 20 21 22 23 24 25 26 27
000
FTUS42 KMFL 211138
TAFFLL
TAF
KFLL 211138Z 2112/2212 07014G22KT P6SM VCSH FEW020 SCT030 BKN040
     FM211500 08018G27KT P6SM VCSH SCT025 BKN035
     FM220200 10015KT P6SM VCSH FEW025 BKN050=

USA.gov is the U.S. government's official web portal to all federal, state and local government web resources and services.